Time;durP1;ratioP1;P1;durP2;ratioP2;P2;SDS_P1;SDS_P2;PMS_P1;PMS_P2;Temp;Humidity;BMP_temperature;BMP_pressure;BME280_temperature;BME280_humidity;BME280_pressure;Samples;Min_cycle;Max_cycle;Signal;HPM_P1;HPM_P2
2021/11/16 00:01:26;;;;;;;6.65;4.97;;;22.40;42.10;;;;;;5074565;28;20387;-72
2021/11/16 00:03:53;;;;;;;6.65;5.40;;;22.40;42.10;;;;;;5073262;28;20419;-72
2021/11/16 00:06:19;;;;;;;6.35;5.18;;;22.40;42.10;;;;;;5074322;28;20391;-72
2021/11/16 00:08:45;;;;;;;5.80;4.80;;;22.40;42.10;;;;;;5073027;28;20392;-72
2021/11/16 00:11:10;;;;;;;5.85;4.50;;;22.40;42.10;;;;;;5074330;28;20403;-72
2021/11/16 00:13:37;;;;;;;6.72;5.10;;;22.40;42.00;;;;;;5074224;28;20388;-72
2021/11/16 00:16:03;;;;;;;6.30;4.70;;;22.40;42.00;;;;;;5072799;28;20486;-72
2021/11/16 00:18:30;;;;;;;6.07;4.67;;;22.40;42.00;;;;;;5074223;28;20449;-73
2021/11/16 00:20:58;;;;;;;6.68;4.90;;;22.40;42.00;;;;;;5074042;28;20387;-72
2021/11/16 00:23:25;;;;;;;5.82;4.93;;;22.40;42.00;;;;;;5073928;28;20407;-72
2021/11/16 00:25:55;;;;;;;6.35;4.80;;;22.40;41.90;;;;;;5073996;28;20456;-72
2021/11/16 00:28:22;;;;;;;6.38;4.85;;;22.40;41.90;;;;;;5074011;28;20483;-71
2021/11/16 00:30:48;;;;;;;7.03;5.15;;;22.40;41.80;;;;;;5073933;28;20448;-72
2021/11/16 00:33:15;;;;;;;5.70;4.70;;;22.40;41.80;;;;;;5072942;28;20457;-72
2021/11/16 00:35:42;;;;;;;6.38;4.95;;;22.40;41.80;;;;;;5073894;28;20415;-72
2021/11/16 00:38:09;;;;;;;6.25;4.75;;;22.40;41.70;;;;;;5073596;28;20419;-72
2021/11/16 00:40:37;;;;;;;5.72;4.60;;;22.40;41.70;;;;;;5073736;28;20388;-72
2021/11/16 00:43:07;;;;;;;7.53;4.70;;;22.40;41.70;;;;;;5072416;28;20407;-72
2021/11/16 00:45:34;;;;;;;6.22;4.88;;;22.40;41.70;;;;;;5073715;28;20384;-72
2021/11/16 00:48:00;;;;;;;5.57;4.85;;;22.40;41.70;;;;;;5073575;28;20502;-72
2021/11/16 00:50:26;;;;;;;6.40;4.65;;;22.40;41.60;;;;;;5073660;28;20857;-72
2021/11/16 00:52:51;;;;;;;6.70;5.10;;;22.40;41.60;;;;;;5072261;28;20398;-73
2021/11/16 00:55:18;;;;;;;5.70;4.80;;;22.40;41.60;;;;;;5073410;28;20422;-72
2021/11/16 00:57:44;;;;;;;5.78;4.70;;;22.40;41.60;;;;;;5073423;28;20465;-72
2021/11/16 01:00:12;;;;;;;5.38;4.65;;;22.40;41.50;;;;;;5071520;28;20390;-72
2021/11/16 01:02:38;;;;;;;5.60;4.60;;;22.40;41.60;;;;;;5071310;28;20404;-72
2021/11/16 01:05:05;;;;;;;6.50;4.90;;;22.40;41.50;;;;;;5072989;28;20388;-72
2021/11/16 01:07:31;;;;;;;6.30;5.10;;;22.40;41.60;;;;;;5072343;28;20392;-72
2021/11/16 01:09:58;;;;;;;5.88;4.60;;;22.40;41.60;;;;;;5073104;28;20391;-72
2021/11/16 01:12:25;;;;;;;6.10;4.88;;;22.40;41.50;;;;;;5073056;28;20478;-73
2021/11/16 01:14:51;;;;;;;5.28;4.63;;;22.40;41.50;;;;;;5072959;28;20391;-72
2021/11/16 01:17:17;;;;;;;5.63;4.60;;;22.40;42.00;;;;;;5072906;28;20407;-72
2021/11/16 01:19:43;;;;;;;5.90;4.95;;;22.40;41.40;;;;;;5072984;28;20384;-72
2021/11/16 01:22:09;;;;;;;6.07;4.63;;;22.40;41.40;;;;;;5071434;28;20407;-72
2021/11/16 01:24:35;;;;;;;5.50;4.57;;;22.30;41.40;;;;;;5071645;28;20401;-72
2021/11/16 01:27:01;;;;;;;5.70;4.60;;;22.40;41.40;;;;;;5072693;28;20734;-72
2021/11/16 01:29:27;;;;;;;5.67;4.77;;;22.40;41.40;;;;;;5071555;28;20388;-72
2021/11/16 01:31:56;;;;;;;5.68;4.68;;;22.30;41.30;;;;;;5072748;28;20518;-72
2021/11/16 01:34:30;;;;;;;5.78;4.75;;;22.40;41.40;;;;;;5072620;28;20745;-72
2021/11/16 01:36:56;;;;;;;5.65;4.80;;;22.40;41.40;;;;;;5072514;28;20473;-72
2021/11/16 01:39:23;;;;;;;5.43;4.60;;;22.40;41.30;;;;;;5072566;28;20383;-72
2021/11/16 01:41:49;;;;;;;5.40;4.28;;;22.40;41.20;;;;;;5072467;28;20395;-72
2021/11/16 01:44:15;;;;;;;6.05;4.82;;;22.40;41.20;;;;;;5072525;28;20399;-72
2021/11/16 01:46:41;;;;;;;5.75;4.57;;;22.40;41.20;;;;;;5072480;28;20380;-72
2021/11/16 01:49:09;;;;;;;5.33;4.70;;;22.40;41.20;;;;;;5072358;28;20463;-72
2021/11/16 01:51:35;;;;;;;5.07;4.40;;;22.40;41.10;;;;;;5072314;28;20395;-72
2021/11/16 01:54:04;;;;;;;5.70;4.50;;;22.40;41.20;;;;;;5072135;28;20406;-72
2021/11/16 01:56:32;;;;;;;5.88;4.95;;;22.40;41.10;;;;;;5072201;28;20434;-73
2021/11/16 01:58:59;;;;;;;5.05;4.50;;;22.40;41.20;;;;;;5072193;28;20424;-72
2021/11/16 02:01:27;;;;;;;5.57;4.60;;;22.40;41.20;;;;;;5072238;28;20475;-72
2021/11/16 02:03:53;;;;;;;6.07;4.82;;;22.40;41.20;;;;;;5071358;28;20391;-72
2021/11/16 02:06:23;;;;;;;5.40;4.40;;;22.30;41.20;;;;;;5070781;28;20392;-72
2021/11/16 02:08:51;;;;;;;6.00;4.70;;;22.30;41.10;;;;;;5072041;28;20383;-72
2021/11/16 02:11:17;;;;;;;5.70;4.63;;;22.30;41.10;;;;;;5072039;28;20991;-72
2021/11/16 02:13:43;;;;;;;5.32;4.53;;;22.30;41.10;;;;;;5071601;28;20461;-72
2021/11/16 02:16:08;;;;;;;5.22;4.60;;;22.30;41.10;;;;;;5072007;28;20484;-72
2021/11/16 02:18:36;;;;;;;5.38;4.75;;;22.30;41.10;;;;;;5071932;28;20731;-72
2021/11/16 02:21:03;;;;;;;5.88;4.60;;;22.30;41.00;;;;;;5071692;28;20505;-72
2021/11/16 02:23:29;;;;;;;5.35;4.55;;;22.30;41.00;;;;;;5070593;28;20408;-72
2021/11/16 02:25:55;;;;;;;5.55;4.60;;;22.30;41.10;;;;;;5071618;28;20386;-72
2021/11/16 02:28:22;;;;;;;5.68;4.57;;;22.30;41.00;;;;;;5071943;28;20372;-72
2021/11/16 02:30:48;;;;;;;5.45;4.55;;;22.30;41.00;;;;;;5071726;28;20942;-72
2021/11/16 02:33:14;;;;;;;4.93;4.43;;;22.30;40.90;;;;;;5071817;28;20388;-72
2021/11/16 02:35:40;;;;;;;5.78;4.72;;;22.30;41.00;;;;;;5071772;28;20402;-72
2021/11/16 02:38:06;;;;;;;5.10;4.40;;;22.30;40.90;;;;;;5071783;28;20396;-72
2021/11/16 02:40:33;;;;;;;5.67;4.63;;;22.30;41.00;;;;;;5071768;28;20380;-72
2021/11/16 02:42:58;;;;;;;5.35;4.47;;;22.30;41.00;;;;;;5071732;28;20391;-72
2021/11/16 02:45:24;;;;;;;5.33;4.60;;;22.30;40.90;;;;;;5071695;28;20392;-72
2021/11/16 02:47:50;;;;;;;6.00;4.57;;;22.30;41.00;;;;;;5071573;28;20753;-72
2021/11/16 02:50:18;;;;;;;5.13;4.45;;;22.30;40.90;;;;;;5070458;28;20392;-72
2021/11/16 02:52:44;;;;;;;5.55;4.32;;;22.30;40.80;;;;;;5071643;28;20380;-72
2021/11/16 02:55:10;;;;;;;5.45;4.68;;;22.30;41.50;;;;;;5071585;28;20395;-72
2021/11/16 02:57:36;;;;;;;4.90;4.30;;;22.30;40.90;;;;;;5070353;28;20956;-72
2021/11/16 03:00:06;;;;;;;5.47;4.53;;;22.30;40.80;;;;;;5071494;28;20765;-72
2021/11/16 03:02:32;;;;;;;5.50;4.50;;;22.30;40.80;;;;;;5071541;28;20538;-72
2021/11/16 03:04:58;;;;;;;5.50;4.57;;;22.30;40.70;;;;;;5071525;28;20848;-72
2021/11/16 03:07:56;;;;;;;5.70;4.50;;;22.30;40.70;;;;;;5071584;28;20388;-72
2021/11/16 03:10:29;;;;;;;4.80;4.22;;;22.30;40.80;;;;;;5070154;28;20384;-72
2021/11/16 03:12:55;;;;;;;5.78;4.50;;;22.30;40.70;;;;;;5071424;28;20481;-72
2021/11/16 03:15:21;;;;;;;5.67;4.70;;;22.30;40.70;;;;;;5071512;28;20838;-72
2021/11/16 03:17:47;;;;;;;5.35;4.57;;;22.30;40.70;;;;;;5071379;28;20478;-72
2021/11/16 03:20:16;;;;;;;5.55;4.63;;;22.30;40.70;;;;;;5070117;28;20722;-72
2021/11/16 03:22:53;;;;;;;5.57;4.55;;;22.30;40.70;;;;;;5071227;28;20411;-72
2021/11/16 03:25:23;;;;;;;5.50;4.78;;;22.30;40.70;;;;;;5073913;28;20766;-72
2021/11/16 03:28:03;;;;;;;5.68;4.57;;;22.30;40.80;;;;;;5073802;28;20397;-72
2021/11/16 03:30:30;;;;;;;5.75;4.80;;;22.30;41.30;;;;;;5075073;28;20384;-73
2021/11/16 03:32:56;;;;;;;5.85;4.80;;;22.30;40.70;;;;;;5074947;28;20399;-72
2021/11/16 03:35:21;;;;;;;5.00;4.20;;;22.20;40.60;;;;;;5072864;28;20437;-72
2021/11/16 03:37:50;;;;;;;5.33;4.70;;;22.20;40.60;;;;;;5074754;28;20400;-71
2021/11/16 03:40:17;;;;;;;5.57;4.72;;;22.30;40.70;;;;;;5074908;28;20422;-72
2021/11/16 03:42:48;;;;;;;5.78;4.75;;;22.20;40.70;;;;;;5074737;28;20491;-73
2021/11/16 03:45:16;;;;;;;5.68;4.80;;;22.20;40.60;;;;;;5074621;28;20386;-72
2021/11/16 03:47:42;;;;;;;5.15;4.57;;;22.20;40.60;;;;;;5074695;28;20396;-72
2021/11/16 03:50:14;;;;;;;5.68;4.70;;;22.20;40.60;;;;;;5074630;28;20407;-72
2021/11/16 03:52:42;;;;;;;6.05;4.82;;;22.30;40.60;;;;;;5074604;28;20866;-72
2021/11/16 03:55:12;;;;;;;5.83;4.77;;;22.20;40.60;;;;;;5074639;28;20472;-72
2021/11/16 03:57:39;;;;;;;5.53;4.70;;;22.20;40.60;;;;;;5074491;28;20431;-72
2021/11/16 04:00:07;;;;;;;6.32;5.00;;;22.20;40.60;;;;;;5074371;28;20391;-72
2021/11/16 04:02:33;;;;;;;5.50;4.50;;;22.20;40.50;;;;;;5073177;28;20434;-71
2021/11/16 04:04:59;;;;;;;7.68;5.90;;;22.20;40.50;;;;;;5074477;28;20775;-72
2021/11/16 04:07:25;;;;;;;9.70;5.90;;;22.20;40.20;;;;;;5074628;28;20411;-71
2021/11/16 04:09:50;;;;;;;7.80;5.78;;;22.30;40.60;;;;;;5074482;28;20403;-72
2021/11/16 04:12:17;;;;;;;8.68;5.45;;;22.40;41.10;;;;;;5074284;28;20750;-72
2021/11/16 04:14:42;;;;;;;8.98;5.90;;;22.50;41.00;;;;;;5074321;28;20894;-72
2021/11/16 04:17:08;;;;;;;8.40;5.97;;;22.40;41.70;;;;;;5074085;28;20412;-72
2021/11/16 04:19:34;;;;;;;9.47;6.73;;;22.40;42.20;;;;;;5074229;28;20402;-72
2021/11/16 04:21:59;;;;;;;8.88;6.68;;;22.50;42.10;;;;;;5073780;28;20396;-72
2021/11/16 04:24:25;;;;;;;8.10;5.80;;;22.50;41.90;;;;;;5074133;28;20384;-72
2021/11/16 04:26:51;;;;;;;8.10;6.28;;;22.40;41.70;;;;;;5073794;28;20428;-72
2021/11/16 04:29:17;;;;;;;10.13;6.87;;;22.40;42.20;;;;;;5073995;28;20411;-72
2021/11/16 04:31:44;;;;;;;8.88;6.80;;;22.40;42.60;;;;;;5073868;28;20384;-72
2021/11/16 04:34:09;;;;;;;9.15;6.35;;;22.50;42.60;;;;;;5073841;28;20388;-72
2021/11/16 04:36:35;;;;;;;10.30;6.20;;;22.50;42.50;;;;;;5073429;28;20754;-72
2021/11/16 04:39:04;;;;;;;8.80;6.50;;;22.50;42.00;;;;;;5073781;28;20390;-72
2021/11/16 04:41:29;;;;;;;10.70;6.35;;;22.40;41.70;;;;;;5073824;28;20435;-72
2021/11/16 04:43:57;;;;;;;8.68;6.55;;;22.40;41.50;;;;;;5073784;28;20415;-72
2021/11/16 04:46:25;;;;;;;8.30;6.40;;;22.40;41.50;;;;;;5073618;28;20539;-71
2021/11/16 04:51:44;;;;;;;9.18;6.22;;;22.40;41.50;;;;;;5073524;28;20465;-71
2021/11/16 04:59:50;;;;;;;8.57;6.10;;;22.40;41.40;;;;;;5073675;28;20383;-72
2021/11/16 05:05:08;;;;;;;8.35;6.45;;;22.30;41.30;;;;;;5073502;28;20956;-72
2021/11/16 05:07:34;;;;;;;8.82;6.43;;;22.30;41.20;;;;;;5073552;28;21084;-72
2021/11/16 05:10:01;;;;;;;8.00;6.43;;;22.30;41.20;;;;;;5073118;28;20383;-72
2021/11/16 05:12:30;;;;;;;7.63;5.85;;;22.30;41.20;;;;;;5073082;28;20417;-72
2021/11/16 05:14:59;;;;;;;7.22;5.85;;;22.30;41.20;;;;;;5073421;28;20395;-72
2021/11/16 05:17:25;;;;;;;8.52;6.15;;;22.30;41.10;;;;;;5073599;28;20419;-72
2021/11/16 05:19:51;;;;;;;7.50;6.20;;;22.30;41.10;;;;;;5072951;28;20742;-72
2021/11/16 05:22:17;;;;;;;7.80;6.13;;;22.30;41.10;;;;;;5073875;28;20411;-72
2021/11/16 05:24:43;;;;;;;8.37;5.90;;;22.30;41.00;;;;;;5073204;28;20380;-72
2021/11/16 05:27:08;;;;;;;8.60;5.95;;;22.30;41.10;;;;;;5071089;28;20769;-71
2021/11/16 05:29:34;;;;;;;8.93;5.80;;;22.30;41.00;;;;;;5072816;28;20387;-72
2021/11/16 05:32:00;;;;;;;9.50;5.88;;;22.30;41.00;;;;;;5066375;28;20407;-71
2021/11/16 05:34:26;;;;;;;10.00;6.60;;;22.40;42.50;;;;;;5066385;28;20380;-72
2021/11/16 05:36:52;;;;;;;8.27;5.72;;;22.40;41.70;;;;;;5071958;28;20411;-72
2021/11/16 05:39:17;;;;;;;7.82;6.25;;;22.50;42.20;;;;;;5071948;28;20933;-71
2021/11/16 05:41:44;;;;;;;9.03;5.97;;;22.50;42.00;;;;;;5067035;28;20406;-72
2021/11/16 05:44:10;;;;;;;14.10;5.70;;;22.50;42.00;;;;;;5062230;28;20389;-72
2021/11/16 05:46:36;;;;;;;9.23;5.53;;;22.50;41.30;;;;;;5060684;28;20397;-71
2021/11/16 05:49:02;;;;;;;9.57;6.25;;;22.50;42.10;;;;;;5051838;28;20397;-71
2021/11/16 05:51:28;;;;;;;8.93;5.93;;;22.60;41.90;;;;;;5052003;28;20856;-71
2021/11/16 05:53:58;;;;;;;8.63;5.53;;;22.60;42.10;;;;;;5052090;28;20386;-71
2021/11/16 05:56:26;;;;;;;10.07;5.80;;;22.50;41.80;;;;;;5051711;28;20492;-72
2021/11/16 05:58:53;;;;;;;9.10;5.82;;;22.60;42.20;;;;;;5052549;28;20442;-71
2021/11/16 06:01:21;;;;;;;8.15;5.63;;;22.60;42.50;;;;;;5051613;28;20870;-72
2021/11/16 06:03:51;;;;;;;8.27;5.75;;;22.60;41.90;;;;;;5050669;28;20393;-72
2021/11/16 06:06:22;;;;;;;11.48;5.57;;;22.60;42.10;;;;;;5051728;28;20433;-72
2021/11/16 06:08:49;;;;;;;11.90;6.05;;;22.50;42.00;;;;;;5051902;28;20447;-72
2021/11/16 06:11:18;;;;;;;11.18;5.82;;;22.60;42.10;;;;;;5050527;28;20420;-71
2021/11/16 06:13:48;;;;;;;10.20;5.50;;;22.70;41.80;;;;;;5051864;28;20377;-72
2021/11/16 06:16:14;;;;;;;7.85;5.38;;;22.70;42.10;;;;;;5056110;28;20424;-72
2021/11/16 06:18:46;;;;;;;11.73;5.68;;;22.70;42.50;;;;;;5059288;28;20385;-72
2021/11/16 06:21:12;;;;;;;9.77;5.63;;;22.70;42.30;;;;;;5060043;28;20396;-72
2021/11/16 06:23:38;;;;;;;8.35;5.18;;;22.70;42.00;;;;;;5051371;28;20416;-72
2021/11/16 06:26:05;;;;;;;8.48;5.53;;;22.70;41.90;;;;;;5051447;28;20400;-72
2021/11/16 06:28:30;;;;;;;9.55;5.72;;;22.70;42.10;;;;;;5051797;28;20393;-72
2021/11/16 06:30:56;;;;;;;7.57;5.15;;;22.70;42.20;;;;;;5051481;28;20435;-72
2021/11/16 06:33:23;;;;;;;8.73;5.23;;;22.70;42.10;;;;;;5052460;28;20445;-72
2021/11/16 06:35:50;;;;;;;7.67;5.70;;;22.60;41.80;;;;;;5054049;28;20942;-71
2021/11/16 06:38:15;;;;;;;8.07;5.80;;;22.50;41.50;;;;;;5061657;28;20403;-72
2021/11/16 06:40:47;;;;;;;9.20;5.57;;;22.50;41.40;;;;;;5059128;28;20386;-72
2021/11/16 06:43:26;;;;;;;7.87;5.40;;;22.50;41.40;;;;;;5069180;28;20404;-71
2021/11/16 06:45:55;;;;;;;7.10;5.20;;;22.50;41.30;;;;;;5071168;28;20388;-71
2021/11/16 06:48:22;;;;;;;7.45;5.32;;;22.50;41.30;;;;;;5070113;28;20401;-71
2021/11/16 06:50:49;;;;;;;7.82;5.10;;;22.50;41.30;;;;;;5071266;28;20383;-71
2021/11/16 06:53:27;;;;;;;6.45;5.00;;;22.50;41.30;;;;;;5069997;28;20469;-72
2021/11/16 06:55:53;;;;;;;7.10;5.38;;;22.40;41.20;;;;;;5069583;28;20922;-71
2021/11/16 06:58:20;;;;;;;7.38;5.32;;;22.40;41.30;;;;;;5071060;28;20495;-72
2021/11/16 07:00:46;;;;;;;6.53;5.28;;;22.40;41.20;;;;;;5073829;28;20395;-72
2021/11/16 07:03:20;;;;;;;6.30;4.90;;;22.40;41.20;;;;;;5056210;28;20451;-71
2021/11/16 07:05:56;;;;;;;7.70;5.30;;;22.40;41.30;;;;;;5054559;28;20504;-71
2021/11/16 07:08:30;;;;;;;6.90;5.35;;;22.30;41.30;;;;;;5054037;28;20408;-69
2021/11/16 07:11:17;;;;;;;6.43;4.68;;;22.30;41.40;;;;;;5053925;28;20381;-69
2021/11/16 07:14:13;;;;;;;6.75;5.30;;;22.20;41.40;;;;;;5052545;28;20729;-69
2021/11/16 07:16:39;;;;;;;8.35;5.28;;;22.30;41.40;;;;;;5041349;28;20427;-69
2021/11/16 07:19:10;;;;;;;6.63;5.20;;;22.20;41.30;;;;;;5054573;28;20455;-69
2021/11/16 07:21:46;;;;;;;6.47;5.30;;;22.20;41.10;;;;;;5054625;28;20395;-75
2021/11/16 07:24:17;;;;;;;6.80;4.90;;;22.30;40.70;;;;;;5053643;28;20413;-72
2021/11/16 07:26:43;;;;;;;7.43;5.20;;;22.30;40.80;;;;;;5052791;28;20394;-71
2021/11/16 07:29:14;;;;;;;7.53;5.38;;;22.30;40.80;;;;;;5054464;28;20476;-73
2021/11/16 07:31:42;;;;;;;7.00;5.07;;;22.30;40.90;;;;;;5054778;28;20386;-74
2021/11/16 07:34:18;;;;;;;7.30;4.90;;;22.20;40.80;;;;;;5054700;28;20896;-73
2021/11/16 07:37:04;;;;;;;6.67;4.77;;;22.20;40.80;;;;;;5054603;28;20516;-71
2021/11/16 07:39:42;;;;;;;8.80;5.37;;;22.20;40.70;;;;;;5053226;28;20381;-72
2021/11/16 07:42:08;;;;;;;6.47;4.90;;;22.20;40.60;;;;;;5054531;28;20389;-73
2021/11/16 07:44:35;;;;;;;8.48;5.47;;;22.20;40.60;;;;;;5054547;28;20409;-71
2021/11/16 07:47:01;;;;;;;6.40;5.03;;;22.20;40.30;;;;;;5054490;28;20389;-73
2021/11/16 07:49:27;;;;;;;6.93;5.32;;;22.20;40.50;;;;;;5054225;28;20887;-72
2021/11/16 07:51:54;;;;;;;8.93;5.70;;;22.20;40.60;;;;;;5054302;28;20481;-73
2021/11/16 07:54:24;;;;;;;11.00;7.45;;;22.10;40.50;;;;;;5054336;28;20377;-74
2021/11/16 07:56:51;;;;;;;10.35;7.15;;;22.10;41.90;;;;;;5054030;28;20507;-74
2021/11/16 07:59:18;;;;;;;12.50;6.57;;;22.10;43.20;;;;;;5052982;28;20822;-75
2021/11/16 08:04:22;;;;;;;9.50;6.20;;;22.20;43.30;;;;;;5054183;28;20393;-73
2021/11/16 08:09:39;;;;;;;8.13;5.13;;;22.10;41.20;;;;;;5054031;28;20393;-73
2021/11/16 08:14:45;;;;;;;6.28;4.80;;;22.00;41.60;;;;;;5073430;28;20399;-74
2021/11/16 08:17:13;;;;;;;6.85;5.10;;;22.00;41.90;;;;;;5069024;28;20460;-73
2021/11/16 08:19:40;;;;;;;7.15;5.00;;;22.10;41.80;;;;;;5064094;28;20391;-74
2021/11/16 08:22:19;;;;;;;7.53;5.50;;;22.00;41.10;;;;;;5061470;28;20407;-74
2021/11/16 08:24:48;;;;;;;7.05;5.00;;;22.00;40.70;;;;;;5063493;28;20906;-73
2021/11/16 08:27:20;;;;;;;6.10;4.68;;;21.90;41.00;;;;;;5061259;28;20858;-75
2021/11/16 08:29:49;;;;;;;6.50;4.60;;;21.90;41.60;;;;;;5062585;28;20533;-74
2021/11/16 08:32:20;;;;;;;5.70;4.30;;;22.00;41.70;;;;;;5061161;28;20377;-73
2021/11/16 08:34:53;;;;;;;6.93;4.70;;;22.00;41.60;;;;;;5061861;28;20871;-71
2021/11/16 08:37:21;;;;;;;6.03;4.65;;;22.00;41.40;;;;;;5060638;28;20416;-73
2021/11/16 08:40:00;;;;;;;5.95;4.55;;;21.90;41.40;;;;;;5059826;28;20772;-73
2021/11/16 08:42:29;;;;;;;5.00;4.20;;;21.80;41.00;;;;;;5067554;28;20384;-74
2021/11/16 08:45:07;;;;;;;6.22;4.10;;;21.80;41.50;;;;;;5053435;28;20393;-75
2021/11/16 08:47:36;;;;;;;4.95;3.95;;;21.90;41.30;;;;;;5053500;28;20898;-71
2021/11/16 08:50:05;;;;;;;5.95;4.28;;;21.90;41.20;;;;;;5052963;28;20393;-74
2021/11/16 08:52:32;;;;;;;7.13;4.20;;;21.90;41.10;;;;;;5052691;28;20432;-74
2021/11/16 08:55:11;;;;;;;6.15;4.07;;;21.90;41.10;;;;;;5053055;28;20475;-71
2021/11/16 08:57:38;;;;;;;5.50;4.10;;;21.80;41.20;;;;;;5052483;28;20445;-77
2021/11/16 09:00:28;;;;;;;5.47;4.13;;;21.80;41.70;;;;;;5051648;28;20759;-71
2021/11/16 09:03:06;;;;;;;5.68;3.63;;;21.80;41.50;;;;;;5053221;28;20425;-76
2021/11/16 09:05:41;;;;;;;5.90;3.78;;;21.80;41.40;;;;;;5052799;28;20386;-74
2021/11/16 09:08:23;;;;;;;5.27;3.70;;;21.70;41.40;;;;;;5051801;28;20397;-71
2021/11/16 09:10:51;;;;;;;6.88;3.83;;;21.70;41.50;;;;;;5052647;28;20431;-72
2021/11/16 09:13:20;;;;;;;5.13;3.70;;;21.60;41.80;;;;;;5051280;28;20390;-70
2021/11/16 09:15:53;;;;;;;5.25;3.60;;;21.60;41.80;;;;;;5051006;28;20444;-72
2021/11/16 09:18:28;;;;;;;6.63;3.75;;;21.70;41.90;;;;;;5052607;28;20433;-79
2021/11/16 09:21:23;;;;;;;6.18;3.90;;;21.70;42.10;;;;;;5052550;28;20478;-73
2021/11/16 09:24:07;;;;;;;5.78;3.50;;;21.70;41.90;;;;;;5052018;28;20461;-75
2021/11/16 09:27:09;;;;;;;7.00;3.90;;;21.60;41.90;;;;;;5051379;28;20440;-75
2021/11/16 09:29:23;;;;;;;5.93;3.67;;;21.60;42.00;;;;;;5051948;28;20481;-74
2021/11/16 09:31:52;;;;;;;10.23;4.18;;;21.60;42.20;;;;;;5050818;28;20389;-71
2021/11/16 09:34:29;;;;;;;7.57;4.00;;;21.70;42.80;;;;;;5052412;28;20425;-71
2021/11/16 09:37:00;;;;;;;6.53;3.67;;;21.60;42.10;;;;;;5052125;28;20848;-71
2021/11/16 09:39:30;;;;;;;6.63;3.70;;;21.60;42.10;;;;;;5052153;28;20385;-71
2021/11/16 09:42:01;;;;;;;8.80;4.45;;;21.50;42.40;;;;;;5050599;28;20385;-72
2021/11/16 09:44:29;;;;;;;8.23;4.07;;;21.40;42.70;;;;;;5050942;28;20739;-72
2021/11/16 09:46:58;;;;;;;7.85;3.70;;;21.50;42.80;;;;;;5052349;28;20381;-73
2021/11/16 09:49:36;;;;;;;6.97;3.60;;;21.60;42.70;;;;;;5051999;28;20390;-72
2021/11/16 09:52:13;;;;;;;6.65;3.90;;;21.60;42.50;;;;;;5050895;28;20953;-71
2021/11/16 09:55:14;;;;;;;5.70;3.67;;;21.70;42.50;;;;;;5050732;28;20393;-72
2021/11/16 09:57:47;;;;;;;6.50;3.40;;;21.70;42.40;;;;;;5046419;28;20463;-72
2021/11/16 10:00:29;;;;;;;8.00;3.60;;;21.70;42.30;;;;;;5051916;28;20679;-74
2021/11/16 10:03:06;;;;;;;5.93;3.15;;;21.80;42.10;;;;;;5050495;28;20455;-74
2021/11/16 10:06:04;;;;;;;5.47;3.20;;;21.90;42.40;;;;;;5050781;28;20385;-74
2021/11/16 10:08:31;;;;;;;12.48;5.97;;;21.90;43.00;;;;;;5046987;28;20406;-74
2021/11/16 10:10:59;;;;;;;6.55;3.40;;;22.00;43.70;;;;;;5050542;28;20396;-74
2021/11/16 10:13:28;;;;;;;8.00;4.80;;;22.10;43.10;;;;;;5053681;28;20457;-71
2021/11/16 10:15:56;;;;;;;7.97;4.00;;;22.10;44.10;;;;;;5071653;28;20415;-70
2021/11/16 10:18:24;;;;;;;9.93;3.83;;;22.10;44.20;;;;;;5070211;28;20384;-70
2021/11/16 10:20:52;;;;;;;6.78;3.47;;;22.10;43.20;;;;;;5070718;28;20423;-74
2021/11/16 10:23:32;;;;;;;6.40;3.80;;;22.10;43.40;;;;;;5070128;28;20407;-73
2021/11/16 10:25:59;;;;;;;6.78;3.72;;;22.10;43.30;;;;;;5069924;28;20402;-72
2021/11/16 10:28:26;;;;;;;8.23;3.92;;;22.20;43.20;;;;;;5071526;28;20387;-72
2021/11/16 10:30:57;;;;;;;5.90;3.63;;;22.20;43.20;;;;;;5070796;28;20395;-70
2021/11/16 10:33:44;;;;;;;7.72;3.67;;;22.20;42.90;;;;;;5069790;28;20388;-71
2021/11/16 10:36:14;;;;;;;7.35;3.30;;;22.20;42.50;;;;;;5071139;28;20931;-71
2021/11/16 10:38:57;;;;;;;6.55;3.30;;;22.20;42.90;;;;;;5071482;28;20380;-71
2021/11/16 10:41:30;;;;;;;6.65;3.10;;;22.20;42.50;;;;;;5071318;28;20386;-71
2021/11/16 10:43:58;;;;;;;8.40;3.58;;;22.20;42.90;;;;;;5071170;28;20384;-70
2021/11/16 10:46:30;;;;;;;8.07;3.20;;;22.20;42.90;;;;;;5071156;28;20395;-71
2021/11/16 10:48:59;;;;;;;5.30;3.17;;;22.20;43.00;;;;;;5070214;28;20387;-72
2021/11/16 10:51:30;;;;;;;6.43;3.13;;;22.20;42.90;;;;;;5070073;28;20396;-70
2021/11/16 10:53:57;;;;;;;5.05;2.80;;;22.30;42.80;;;;;;5071214;28;20475;-71
2021/11/16 10:56:28;;;;;;;5.75;2.85;;;22.20;42.60;;;;;;5071088;28;20464;-72
2021/11/16 10:58:55;;;;;;;6.15;2.65;;;22.30;42.40;;;;;;5066071;28;20512;-72
2021/11/16 11:01:24;;;;;;;5.57;2.90;;;22.30;42.30;;;;;;5057432;28;20520;-71
2021/11/16 11:03:54;;;;;;;5.00;2.83;;;22.30;42.40;;;;;;5067236;28;20396;-72
2021/11/16 11:06:21;;;;;;;5.95;2.75;;;22.30;42.40;;;;;;5069900;28;20390;-72
2021/11/16 11:08:50;;;;;;;5.53;2.58;;;22.20;42.30;;;;;;5064839;28;20418;-73
2021/11/16 11:11:24;;;;;;;6.25;2.90;;;22.30;42.40;;;;;;5059213;28;20400;-74
2021/11/16 11:14:13;;;;;;;5.53;2.63;;;22.30;42.40;;;;;;5057029;28;20468;-73
2021/11/16 11:16:49;;;;;;;5.35;2.80;;;22.30;42.10;;;;;;5055673;28;20422;-73
2021/11/16 11:19:21;;;;;;;4.13;2.63;;;22.20;41.60;;;;;;5062510;28;20962;-74
2021/11/16 11:21:55;;;;;;;5.28;2.60;;;22.20;41.90;;;;;;5070667;28;20380;-73
2021/11/16 11:24:48;;;;;;;5.97;2.63;;;22.30;42.00;;;;;;5071178;28;20423;-73
2021/11/16 11:29:46;;;;;;;5.20;2.60;;;22.30;41.90;;;;;;5070434;28;20434;-75
2021/11/16 11:32:12;;;;;;;6.05;2.60;;;22.30;41.90;;;;;;5070171;28;20429;-72
2021/11/16 11:34:48;;;;;;;4.93;2.77;;;22.30;41.90;;;;;;5070745;28;20396;-74
2021/11/16 11:37:43;;;;;;;5.32;2.53;;;22.30;41.90;;;;;;5069610;28;20962;-72
2021/11/16 11:40:09;;;;;;;4.60;2.97;;;22.30;41.80;;;;;;5070857;28;20406;-73
2021/11/16 11:42:46;;;;;;;4.15;2.50;;;22.20;41.70;;;;;;5069205;28;20897;-74
2021/11/16 11:47:44;;;;;;;4.20;2.45;;;22.20;41.80;;;;;;5074758;28;20392;-74
2021/11/16 11:50:22;;;;;;;4.18;2.80;;;22.20;41.70;;;;;;5074357;28;20399;-74
2021/11/16 11:52:48;;;;;;;5.70;3.00;;;22.30;41.70;;;;;;5073308;28;20392;-74
2021/11/16 11:55:14;;;;;;;4.30;2.47;;;22.30;41.60;;;;;;5073458;28;20392;-72
2021/11/16 11:57:40;;;;;;;4.65;2.70;;;22.30;41.60;;;;;;5070747;28;20412;-74
2021/11/16 12:00:07;;;;;;;4.95;2.92;;;22.30;41.50;;;;;;5074378;28;20422;-74
2021/11/16 12:02:33;;;;;;;4.55;2.80;;;22.30;41.50;;;;;;5073077;28;20392;-74
2021/11/16 12:04:59;;;;;;;6.18;3.13;;;22.30;41.40;;;;;;5064320;28;20894;-72
2021/11/16 12:07:28;;;;;;;8.30;3.60;;;22.40;41.50;;;;;;5054281;28;20397;-70
2021/11/16 12:09:54;;;;;;;6.63;3.17;;;22.40;41.40;;;;;;5054255;28;20794;-73
2021/11/16 12:12:21;;;;;;;8.68;3.67;;;22.40;41.40;;;;;;5053916;28;20393;-74
2021/11/16 12:14:58;;;;;;;5.63;3.28;;;22.40;41.20;;;;;;5052799;28;20382;-73
2021/11/16 12:17:28;;;;;;;5.07;2.90;;;22.40;41.10;;;;;;5053131;28;20417;-70
2021/11/16 12:19:55;;;;;;;5.32;2.80;;;22.40;41.20;;;;;;5055852;28;20390;-69
2021/11/16 12:22:27;;;;;;;5.75;2.95;;;22.40;41.30;;;;;;5073042;28;20450;-70
2021/11/16 12:25:16;;;;;;;4.80;2.60;;;22.30;41.20;;;;;;5072759;28;20434;-71
2021/11/16 12:27:42;;;;;;;16.30;6.05;;;22.30;41.40;;;;;;5072365;28;20415;-71
2021/11/16 12:30:10;;;;;;;10.27;3.77;;;22.50;44.10;;;;;;5072736;28;20396;-75
2021/11/16 12:32:50;;;;;;;8.98;3.80;;;22.60;44.90;;;;;;5074508;28;20428;-70
2021/11/16 12:35:18;;;;;;;7.45;3.60;;;22.60;43.90;;;;;;5052819;28;20390;-69
2021/11/16 12:37:49;;;;;;;6.53;3.50;;;22.70;43.40;;;;;;5052523;28;20917;-69
2021/11/16 12:40:18;;;;;;;8.20;3.50;;;22.70;43.90;;;;;;5052431;28;20480;-69
2021/11/16 12:43:09;;;;;;;8.95;3.20;;;22.60;43.80;;;;;;5053794;28;20393;-70
2021/11/16 12:45:43;;;;;;;8.25;3.42;;;22.60;43.50;;;;;;5052199;28;20398;-69
2021/11/16 12:48:10;;;;;;;8.07;3.47;;;22.50;42.70;;;;;;5053534;28;20415;-69
2021/11/16 12:50:36;;;;;;;8.85;3.17;;;22.50;42.70;;;;;;5052630;28;20389;-70
2021/11/16 12:53:02;;;;;;;7.07;2.97;;;22.50;43.00;;;;;;5053589;28;20397;-69
2021/11/16 12:55:32;;;;;;;6.32;3.20;;;22.40;42.60;;;;;;5053326;28;20469;-69
2021/11/16 12:58:27;;;;;;;6.72;2.85;;;22.50;42.30;;;;;;5053081;28;20891;-69
2021/11/16 13:00:53;;;;;;;6.10;2.90;;;22.50;42.30;;;;;;5053327;28;20378;-70
2021/11/16 13:03:55;;;;;;;3.95;2.90;;;22.50;42.40;;;;;;5053278;28;20378;-69
2021/11/16 13:06:21;;;;;;;5.30;3.20;;;22.40;42.00;;;;;;5052030;28;20433;-69
2021/11/16 13:08:49;;;;;;;4.45;2.65;;;22.40;41.70;;;;;;5053118;28;20428;-70
2021/11/16 13:11:35;;;;;;;5.75;2.80;;;22.50;41.80;;;;;;5051818;28;20909;-70
2021/11/16 13:14:00;;;;;;;4.32;2.60;;;22.50;42.10;;;;;;5051765;28;20495;-76
2021/11/16 13:16:26;;;;;;;4.97;2.83;;;22.50;42.10;;;;;;5052844;28;20887;-70
2021/11/16 13:18:57;;;;;;;4.87;2.80;;;22.50;43.20;;;;;;5052491;28;20405;-71
2021/11/16 13:21:24;;;;;;;6.70;2.92;;;22.50;43.30;;;;;;5053038;28;20411;-71
2021/11/16 13:24:01;;;;;;;6.45;3.17;;;22.50;43.80;;;;;;5052769;28;20421;-72